sensor_id;sensor_type;location;lat;lon;timestamp;P1;durP1;ratioP1;P2;durP2;ratioP2
39502;SDS011;26970;49.900;10.774;2022-12-18T00:01:18;50.80;;;20.38;;
39502;SDS011;26970;49.900;10.774;2022-12-18T00:03:45;47.03;;;19.40;;
39502;SDS011;26970;49.900;10.774;2022-12-18T00:06:11;44.83;;;19.10;;
39502;SDS011;26970;49.900;10.774;2022-12-18T00:08:37;53.22;;;21.02;;
39502;SDS011;26970;49.900;10.774;2022-12-18T00:11:03;42.58;;;18.95;;
39502;SDS011;26970;49.900;10.774;2022-12-18T00:13:30;42.35;;;19.65;;
39502;SDS011;26970;49.900;10.774;2022-12-18T00:16:00;47.33;;;19.55;;
39502;SDS011;26970;49.900;10.774;2022-12-18T00:18:27;52.83;;;18.30;;
39502;SDS011;26970;49.900;10.774;2022-12-18T00:20:53;51.42;;;20.63;;
39502;SDS011;26970;49.900;10.774;2022-12-18T00:23:18;50.40;;;19.35;;
39502;SDS011;26970;49.900;10.774;2022-12-18T00:25:44;40.30;;;18.63;;
39502;SDS011;26970;49.900;10.774;2022-12-18T00:28:09;44.85;;;18.95;;
39502;SDS011;26970;49.900;10.774;2022-12-18T00:30:35;44.83;;;18.92;;
39502;SDS011;26970;49.900;10.774;2022-12-18T00:33:00;40.78;;;18.20;;
39502;SDS011;26970;49.900;10.774;2022-12-18T00:35:26;39.65;;;17.20;;
39502;SDS011;26970;49.900;10.774;2022-12-18T00:37:51;45.55;;;17.83;;
39502;SDS011;26970;49.900;10.774;2022-12-18T00:40:17;37.10;;;17.58;;
39502;SDS011;26970;49.900;10.774;2022-12-18T00:42:42;47.20;;;18.55;;
39502;SDS011;26970;49.900;10.774;2022-12-18T00:45:27;41.60;;;18.58;;
39502;SDS011;26970;49.900;10.774;2022-12-18T00:47:54;41.25;;;17.27;;
39502;SDS011;26970;49.900;10.774;2022-12-18T00:50:20;38.00;;;16.85;;
39502;SDS011;26970;49.900;10.774;2022-12-18T00:52:47;44.45;;;17.55;;
39502;SDS011;26970;49.900;10.774;2022-12-18T00:55:13;55.92;;;19.95;;
39502;SDS011;26970;49.900;10.774;2022-12-18T00:57:39;45.13;;;19.23;;
39502;SDS011;26970;49.900;10.774;2022-12-18T01:00:07;44.80;;;18.48;;
39502;SDS011;26970;49.900;10.774;2022-12-18T01:02:35;46.40;;;18.20;;
39502;SDS011;26970;49.900;10.774;2022-12-18T01:05:01;42.03;;;17.15;;
39502;SDS011;26970;49.900;10.774;2022-12-18T01:07:27;41.00;;;18.15;;
39502;SDS011;26970;49.900;10.774;2022-12-18T01:09:52;48.47;;;18.83;;
39502;SDS011;26970;49.900;10.774;2022-12-18T01:12:18;46.70;;;19.45;;
39502;SDS011;26970;49.900;10.774;2022-12-18T01:14:43;51.15;;;20.83;;
39502;SDS011;26970;49.900;10.774;2022-12-18T01:17:09;47.45;;;19.45;;
39502;SDS011;26970;49.900;10.774;2022-12-18T01:19:34;52.78;;;22.17;;
39502;SDS011;26970;49.900;10.774;2022-12-18T01:22:00;52.58;;;20.45;;
39502;SDS011;26970;49.900;10.774;2022-12-18T01:24:26;55.35;;;20.70;;
39502;SDS011;26970;49.900;10.774;2022-12-18T01:26:51;42.85;;;20.80;;
39502;SDS011;26970;49.900;10.774;2022-12-18T01:29:17;55.50;;;20.77;;
39502;SDS011;26970;49.900;10.774;2022-12-18T01:31:43;46.33;;;19.70;;
39502;SDS011;26970;49.900;10.774;2022-12-18T01:34:08;45.10;;;20.52;;
39502;SDS011;26970;49.900;10.774;2022-12-18T01:36:35;53.67;;;20.98;;
39502;SDS011;26970;49.900;10.774;2022-12-18T01:39:12;49.65;;;19.20;;
39502;SDS011;26970;49.900;10.774;2022-12-18T01:41:41;45.85;;;18.98;;
39502;SDS011;26970;49.900;10.774;2022-12-18T01:50:00;44.63;;;19.67;;
39502;SDS011;26970;49.900;10.774;2022-12-18T01:52:39;47.28;;;18.55;;
39502;SDS011;26970;49.900;10.774;2022-12-18T01:55:08;51.78;;;19.50;;
39502;SDS011;26970;49.900;10.774;2022-12-18T01:57:36;37.38;;;17.58;;
39502;SDS011;26970;49.900;10.774;2022-12-18T02:00:09;41.75;;;17.98;;
39502;SDS011;26970;49.900;10.774;2022-12-18T02:02:41;36.80;;;17.85;;
39502;SDS011;26970;49.900;10.774;2022-12-18T02:05:09;45.70;;;19.13;;
39502;SDS011;26970;49.900;10.774;2022-12-18T02:14:04;41.22;;;17.95;;
39502;SDS011;26970;49.900;10.774;2022-12-18T02:16:38;43.67;;;19.10;;
39502;SDS011;26970;49.900;10.774;2022-12-18T02:22:03;41.70;;;18.87;;
39502;SDS011;26970;49.900;10.774;2022-12-18T02:24:35;35.47;;;16.45;;
39502;SDS011;26970;49.900;10.774;2022-12-18T02:27:17;43.88;;;17.65;;
39502;SDS011;26970;49.900;10.774;2022-12-18T02:29:46;42.92;;;18.23;;
39502;SDS011;26970;49.900;10.774;2022-12-18T02:32:17;44.20;;;17.90;;
39502;SDS011;26970;49.900;10.774;2022-12-18T02:34:50;45.65;;;18.77;;
39502;SDS011;26970;49.900;10.774;2022-12-18T02:37:17;39.15;;;16.45;;
39502;SDS011;26970;49.900;10.774;2022-12-18T02:39:45;54.20;;;19.85;;
39502;SDS011;26970;49.900;10.774;2022-12-18T02:42:13;41.97;;;17.13;;
39502;SDS011;26970;49.900;10.774;2022-12-18T02:44:44;44.60;;;19.35;;
39502;SDS011;26970;49.900;10.774;2022-12-18T02:47:12;46.05;;;17.42;;
39502;SDS011;26970;49.900;10.774;2022-12-18T02:49:44;47.30;;;19.02;;
39502;SDS011;26970;49.900;10.774;2022-12-18T02:52:26;53.97;;;19.40;;
39502;SDS011;26970;49.900;10.774;2022-12-18T02:57:50;40.78;;;19.05;;
39502;SDS011;26970;49.900;10.774;2022-12-18T03:00:22;47.85;;;18.63;;
39502;SDS011;26970;49.900;10.774;2022-12-18T03:02:57;40.72;;;19.02;;
39502;SDS011;26970;49.900;10.774;2022-12-18T03:11:20;41.80;;;15.95;;
39502;SDS011;26970;49.900;10.774;2022-12-18T03:13:50;38.15;;;16.00;;
39502;SDS011;26970;49.900;10.774;2022-12-18T03:16:25;44.53;;;17.40;;
39502;SDS011;26970;49.900;10.774;2022-12-18T03:18:55;45.80;;;17.27;;
39502;SDS011;26970;49.900;10.774;2022-12-18T03:21:39;43.40;;;18.65;;
39502;SDS011;26970;49.900;10.774;2022-12-18T03:24:10;46.33;;;19.17;;
39502;SDS011;26970;49.900;10.774;2022-12-18T03:26:37;42.97;;;18.17;;
39502;SDS011;26970;49.900;10.774;2022-12-18T03:29:28;37.58;;;16.50;;
39502;SDS011;26970;49.900;10.774;2022-12-18T03:32:04;51.08;;;17.13;;
39502;SDS011;26970;49.900;10.774;2022-12-18T03:34:33;42.22;;;17.73;;
39502;SDS011;26970;49.900;10.774;2022-12-18T03:37:01;37.83;;;16.67;;
39502;SDS011;26970;49.900;10.774;2022-12-18T03:39:27;49.47;;;18.10;;
39502;SDS011;26970;49.900;10.774;2022-12-18T03:44:52;42.45;;;17.08;;
39502;SDS011;26970;49.900;10.774;2022-12-18T03:47:33;35.05;;;15.18;;
39502;SDS011;26970;49.900;10.774;2022-12-18T03:50:14;42.22;;;16.00;;
39502;SDS011;26970;49.900;10.774;2022-12-18T03:52:53;37.00;;;15.70;;
39502;SDS011;26970;49.900;10.774;2022-12-18T03:55:27;41.70;;;17.50;;
39502;SDS011;26970;49.900;10.774;2022-12-18T03:57:57;38.63;;;15.27;;
39502;SDS011;26970;49.900;10.774;2022-12-18T04:00:24;42.55;;;18.40;;
39502;SDS011;26970;49.900;10.774;2022-12-18T04:02:54;36.92;;;16.73;;
39502;SDS011;26970;49.900;10.774;2022-12-18T04:05:22;36.42;;;16.50;;
39502;SDS011;26970;49.900;10.774;2022-12-18T04:07:50;39.78;;;15.75;;
39502;SDS011;26970;49.900;10.774;2022-12-18T04:10:17;33.58;;;15.25;;
39502;SDS011;26970;49.900;10.774;2022-12-18T04:12:43;39.13;;;17.33;;
39502;SDS011;26970;49.900;10.774;2022-12-18T04:15:10;30.95;;;14.93;;
39502;SDS011;26970;49.900;10.774;2022-12-18T04:17:36;43.60;;;16.63;;
39502;SDS011;26970;49.900;10.774;2022-12-18T04:20:03;32.08;;;15.43;;
39502;SDS011;26970;49.900;10.774;2022-12-18T04:22:29;36.90;;;14.77;;
39502;SDS011;26970;49.900;10.774;2022-12-18T04:24:55;43.95;;;15.98;;
39502;SDS011;26970;49.900;10.774;2022-12-18T04:27:20;40.42;;;14.32;;
39502;SDS011;26970;49.900;10.774;2022-12-18T04:29:46;40.15;;;16.70;;
39502;SDS011;26970;49.900;10.774;2022-12-18T04:32:12;38.78;;;16.60;;
39502;SDS011;26970;49.900;10.774;2022-12-18T04:34:37;25.77;;;13.93;;
39502;SDS011;26970;49.900;10.774;2022-12-18T04:37:03;34.70;;;15.70;;
39502;SDS011;26970;49.900;10.774;2022-12-18T04:39:29;37.10;;;15.88;;
39502;SDS011;26970;49.900;10.774;2022-12-18T04:41:54;32.65;;;14.02;;
39502;SDS011;26970;49.900;10.774;2022-12-18T04:44:20;41.92;;;16.35;;
39502;SDS011;26970;49.900;10.774;2022-12-18T04:46:45;37.97;;;14.68;;
39502;SDS011;26970;49.900;10.774;2022-12-18T04:49:11;40.42;;;15.60;;
39502;SDS011;26970;49.900;10.774;2022-12-18T04:51:37;40.50;;;16.73;;
39502;SDS011;26970;49.900;10.774;2022-12-18T04:54:03;39.50;;;16.70;;
39502;SDS011;26970;49.900;10.774;2022-12-18T04:56:29;44.25;;;15.32;;
39502;SDS011;26970;49.900;10.774;2022-12-18T04:58:56;40.40;;;17.05;;
39502;SDS011;26970;49.900;10.774;2022-12-18T05:01:21;39.15;;;16.33;;
39502;SDS011;26970;49.900;10.774;2022-12-18T05:03:47;38.38;;;15.98;;
39502;SDS011;26970;49.900;10.774;2022-12-18T05:06:12;36.22;;;16.13;;
39502;SDS011;26970;49.900;10.774;2022-12-18T05:08:38;42.60;;;16.77;;
39502;SDS011;26970;49.900;10.774;2022-12-18T05:11:05;37.70;;;17.20;;
39502;SDS011;26970;49.900;10.774;2022-12-18T05:13:33;42.00;;;16.77;;
39502;SDS011;26970;49.900;10.774;2022-12-18T05:15:59;41.65;;;14.48;;
39502;SDS011;26970;49.900;10.774;2022-12-18T05:18:25;37.08;;;15.60;;
39502;SDS011;26970;49.900;10.774;2022-12-18T05:20:51;39.40;;;16.00;;
39502;SDS011;26970;49.900;10.774;2022-12-18T05:23:18;34.75;;;14.45;;
39502;SDS011;26970;49.900;10.774;2022-12-18T05:25:54;40.35;;;14.05;;
39502;SDS011;26970;49.900;10.774;2022-12-18T05:28:22;46.22;;;15.88;;
39502;SDS011;26970;49.900;10.774;2022-12-18T05:30:49;40.80;;;15.75;;
39502;SDS011;26970;49.900;10.774;2022-12-18T05:33:16;46.67;;;18.10;;
39502;SDS011;26970;49.900;10.774;2022-12-18T05:35:43;39.05;;;13.15;;
39502;SDS011;26970;49.900;10.774;2022-12-18T05:38:09;43.28;;;16.95;;
39502;SDS011;26970;49.900;10.774;2022-12-18T05:40:34;39.97;;;13.18;;
39502;SDS011;26970;49.900;10.774;2022-12-18T05:43:01;35.80;;;14.77;;
39502;SDS011;26970;49.900;10.774;2022-12-18T05:45:27;49.13;;;17.48;;
39502;SDS011;26970;49.900;10.774;2022-12-18T05:47:52;49.45;;;14.88;;
39502;SDS011;26970;49.900;10.774;2022-12-18T05:50:18;45.25;;;15.05;;
39502;SDS011;26970;49.900;10.774;2022-12-18T05:52:43;52.33;;;16.23;;
39502;SDS011;26970;49.900;10.774;2022-12-18T05:55:09;40.35;;;16.23;;
39502;SDS011;26970;49.900;10.774;2022-12-18T05:57:34;36.83;;;14.07;;
39502;SDS011;26970;49.900;10.774;2022-12-18T06:00:00;44.67;;;14.35;;
39502;SDS011;26970;49.900;10.774;2022-12-18T06:02:25;43.05;;;15.48;;
39502;SDS011;26970;49.900;10.774;2022-12-18T06:04:51;38.95;;;14.88;;
39502;SDS011;26970;49.900;10.774;2022-12-18T06:07:16;47.95;;;16.10;;
39502;SDS011;26970;49.900;10.774;2022-12-18T06:09:42;47.70;;;16.25;;
39502;SDS011;26970;49.900;10.774;2022-12-18T06:12:07;54.33;;;16.10;;
39502;SDS011;26970;49.900;10.774;2022-12-18T06:14:33;46.17;;;16.10;;
39502;SDS011;26970;49.900;10.774;2022-12-18T06:16:58;47.25;;;14.38;;
39502;SDS011;26970;49.900;10.774;2022-12-18T06:19:24;44.33;;;13.85;;
39502;SDS011;26970;49.900;10.774;2022-12-18T06:21:50;40.78;;;16.08;;
39502;SDS011;26970;49.900;10.774;2022-12-18T06:24:16;49.08;;;17.48;;
39502;SDS011;26970;49.900;10.774;2022-12-18T06:26:41;48.72;;;16.08;;
39502;SDS011;26970;49.900;10.774;2022-12-18T06:29:07;45.65;;;16.60;;
39502;SDS011;26970;49.900;10.774;2022-12-18T06:31:32;51.67;;;15.88;;
39502;SDS011;26970;49.900;10.774;2022-12-18T06:33:58;41.33;;;14.57;;
39502;SDS011;26970;49.900;10.774;2022-12-18T06:36:24;39.00;;;14.15;;
39502;SDS011;26970;49.900;10.774;2022-12-18T06:38:49;38.28;;;12.32;;
39502;SDS011;26970;49.900;10.774;2022-12-18T06:41:16;39.53;;;14.80;;
39502;SDS011;26970;49.900;10.774;2022-12-18T06:43:43;37.80;;;13.20;;
39502;SDS011;26970;49.900;10.774;2022-12-18T06:46:09;38.38;;;13.10;;
39502;SDS011;26970;49.900;10.774;2022-12-18T06:48:35;46.30;;;16.48;;
39502;SDS011;26970;49.900;10.774;2022-12-18T06:51:01;36.58;;;12.38;;
39502;SDS011;26970;49.900;10.774;2022-12-18T06:53:27;42.67;;;13.27;;
39502;SDS011;26970;49.900;10.774;2022-12-18T06:55:52;40.58;;;15.10;;
39502;SDS011;26970;49.900;10.774;2022-12-18T06:58:24;37.03;;;12.73;;
39502;SDS011;26970;49.900;10.774;2022-12-18T07:00:49;44.35;;;14.35;;
39502;SDS011;26970;49.900;10.774;2022-12-18T07:03:15;39.97;;;13.57;;
39502;SDS011;26970;49.900;10.774;2022-12-18T07:05:41;45.47;;;15.02;;
39502;SDS011;26970;49.900;10.774;2022-12-18T07:08:06;34.13;;;11.90;;
39502;SDS011;26970;49.900;10.774;2022-12-18T07:10:32;46.25;;;14.73;;
39502;SDS011;26970;49.900;10.774;2022-12-18T07:12:57;45.35;;;13.50;;
39502;SDS011;26970;49.900;10.774;2022-12-18T07:15:23;35.83;;;14.93;;
39502;SDS011;26970;49.900;10.774;2022-12-18T07:17:48;40.35;;;14.60;;
39502;SDS011;26970;49.900;10.774;2022-12-18T07:20:14;35.38;;;11.48;;
39502;SDS011;26970;49.900;10.774;2022-12-18T07:22:39;38.45;;;12.82;;
39502;SDS011;26970;49.900;10.774;2022-12-18T07:25:05;24.25;;;10.18;;
39502;SDS011;26970;49.900;10.774;2022-12-18T07:27:31;30.98;;;12.77;;
39502;SDS011;26970;49.900;10.774;2022-12-18T07:29:57;29.75;;;12.18;;
39502;SDS011;26970;49.900;10.774;2022-12-18T07:32:22;30.33;;;9.20;;
39502;SDS011;26970;49.900;10.774;2022-12-18T07:34:48;40.22;;;13.52;;
39502;SDS011;26970;49.900;10.774;2022-12-18T07:37:13;28.83;;;12.27;;
39502;SDS011;26970;49.900;10.774;2022-12-18T07:39:39;38.63;;;12.98;;
39502;SDS011;26970;49.900;10.774;2022-12-18T07:42:04;44.92;;;12.82;;
39502;SDS011;26970;49.900;10.774;2022-12-18T07:44:48;30.98;;;12.23;;
39502;SDS011;26970;49.900;10.774;2022-12-18T07:47:14;33.28;;;12.75;;
39502;SDS011;26970;49.900;10.774;2022-12-18T07:49:39;35.72;;;13.98;;
39502;SDS011;26970;49.900;10.774;2022-12-18T07:52:05;39.40;;;13.73;;
39502;SDS011;26970;49.900;10.774;2022-12-18T07:54:30;37.95;;;13.90;;
39502;SDS011;26970;49.900;10.774;2022-12-18T07:56:56;27.90;;;12.75;;
39502;SDS011;26970;49.900;10.774;2022-12-18T07:59:21;31.23;;;11.70;;
39502;SDS011;26970;49.900;10.774;2022-12-18T08:01:47;29.05;;;11.77;;
39502;SDS011;26970;49.900;10.774;2022-12-18T08:04:12;31.80;;;12.48;;
39502;SDS011;26970;49.900;10.774;2022-12-18T08:06:38;27.90;;;11.43;;
39502;SDS011;26970;49.900;10.774;2022-12-18T08:09:04;33.92;;;12.68;;
39502;SDS011;26970;49.900;10.774;2022-12-18T08:11:29;25.50;;;9.75;;
39502;SDS011;26970;49.900;10.774;2022-12-18T08:13:55;41.40;;;14.40;;
39502;SDS011;26970;49.900;10.774;2022-12-18T08:16:21;38.28;;;13.30;;
39502;SDS011;26970;49.900;10.774;2022-12-18T08:18:48;33.40;;;12.13;;
39502;SDS011;26970;49.900;10.774;2022-12-18T08:21:15;30.73;;;12.05;;
39502;SDS011;26970;49.900;10.774;2022-12-18T08:23:42;45.90;;;13.05;;
39502;SDS011;26970;49.900;10.774;2022-12-18T08:26:08;33.80;;;11.95;;
39502;SDS011;26970;49.900;10.774;2022-12-18T08:28:37;33.95;;;11.65;;
39502;SDS011;26970;49.900;10.774;2022-12-18T08:31:02;25.02;;;9.77;;
39502;SDS011;26970;49.900;10.774;2022-12-18T08:33:28;37.28;;;13.70;;
39502;SDS011;26970;49.900;10.774;2022-12-18T08:35:54;34.25;;;11.90;;
39502;SDS011;26970;49.900;10.774;2022-12-18T08:38:20;32.28;;;12.25;;
39502;SDS011;26970;49.900;10.774;2022-12-18T08:40:45;37.03;;;13.50;;
39502;SDS011;26970;49.900;10.774;2022-12-18T08:43:11;37.63;;;13.48;;
39502;SDS011;26970;49.900;10.774;2022-12-18T08:45:55;34.90;;;13.38;;
39502;SDS011;26970;49.900;10.774;2022-12-18T08:48:21;37.55;;;14.43;;
39502;SDS011;26970;49.900;10.774;2022-12-18T08:50:54;34.38;;;14.65;;
39502;SDS011;26970;49.900;10.774;2022-12-18T08:53:20;31.75;;;12.48;;
39502;SDS011;26970;49.900;10.774;2022-12-18T08:55:46;35.42;;;11.60;;
39502;SDS011;26970;49.900;10.774;2022-12-18T08:58:12;26.73;;;11.25;;
39502;SDS011;26970;49.900;10.774;2022-12-18T09:00:37;36.38;;;13.93;;
39502;SDS011;26970;49.900;10.774;2022-12-18T09:03:02;33.90;;;12.55;;
39502;SDS011;26970;49.900;10.774;2022-12-18T09:05:28;34.55;;;14.82;;
39502;SDS011;26970;49.900;10.774;2022-12-18T09:07:55;39.17;;;15.80;;
39502;SDS011;26970;49.900;10.774;2022-12-18T09:10:21;36.97;;;15.05;;
39502;SDS011;26970;49.900;10.774;2022-12-18T09:12:46;39.00;;;14.85;;
39502;SDS011;26970;49.900;10.774;2022-12-18T09:15:12;33.45;;;14.30;;
39502;SDS011;26970;49.900;10.774;2022-12-18T09:17:37;44.75;;;14.93;;
39502;SDS011;26970;49.900;10.774;2022-12-18T09:20:03;34.42;;;13.02;;
39502;SDS011;26970;49.900;10.774;2022-12-18T09:22:30;35.80;;;15.55;;
39502;SDS011;26970;49.900;10.774;2022-12-18T09:24:55;37.20;;;14.98;;
39502;SDS011;26970;49.900;10.774;2022-12-18T09:27:21;39.97;;;16.73;;
39502;SDS011;26970;49.900;10.774;2022-12-18T09:29:47;36.00;;;14.40;;
39502;SDS011;26970;49.900;10.774;2022-12-18T09:32:12;36.80;;;15.43;;
39502;SDS011;26970;49.900;10.774;2022-12-18T09:34:38;38.70;;;14.85;;
39502;SDS011;26970;49.900;10.774;2022-12-18T09:37:03;37.63;;;14.95;;
39502;SDS011;26970;49.900;10.774;2022-12-18T09:39:29;38.22;;;14.70;;
39502;SDS011;26970;49.900;10.774;2022-12-18T09:41:55;38.47;;;15.68;;
39502;SDS011;26970;49.900;10.774;2022-12-18T09:46:52;42.17;;;15.05;;
39502;SDS011;26970;49.900;10.774;2022-12-18T09:49:26;35.25;;;14.68;;
39502;SDS011;26970;49.900;10.774;2022-12-18T09:52:00;38.13;;;15.63;;
39502;SDS011;26970;49.900;10.774;2022-12-18T09:54:34;33.30;;;13.93;;
39502;SDS011;26970;49.900;10.774;2022-12-18T09:57:03;40.63;;;14.77;;
39502;SDS011;26970;49.900;10.774;2022-12-18T09:59:31;36.63;;;14.20;;
39502;SDS011;26970;49.900;10.774;2022-12-18T10:01:57;36.75;;;15.23;;
39502;SDS011;26970;49.900;10.774;2022-12-18T10:04:23;29.55;;;13.63;;
39502;SDS011;26970;49.900;10.774;2022-12-18T10:06:59;40.60;;;14.38;;
39502;SDS011;26970;49.900;10.774;2022-12-18T10:12:32;30.50;;;12.48;;
39502;SDS011;26970;49.900;10.774;2022-12-18T10:15:27;36.83;;;14.50;;
39502;SDS011;26970;49.900;10.774;2022-12-18T10:18:00;36.60;;;13.18;;
39502;SDS011;26970;49.900;10.774;2022-12-18T10:20:37;28.17;;;11.70;;
39502;SDS011;26970;49.900;10.774;2022-12-18T10:28:24;35.58;;;13.82;;
39502;SDS011;26970;49.900;10.774;2022-12-18T10:30:51;35.75;;;13.45;;
39502;SDS011;26970;49.900;10.774;2022-12-18T10:33:18;31.23;;;14.40;;
39502;SDS011;26970;49.900;10.774;2022-12-18T10:35:47;30.63;;;12.63;;
39502;SDS011;26970;49.900;10.774;2022-12-18T10:46:04;40.45;;;15.68;;
39502;SDS011;26970;49.900;10.774;2022-12-18T10:53:53;37.33;;;14.18;;
39502;SDS011;26970;49.900;10.774;2022-12-18T10:56:26;38.13;;;13.25;;
39502;SDS011;26970;49.900;10.774;2022-12-18T11:01:22;39.63;;;15.05;;
39502;SDS011;26970;49.900;10.774;2022-12-18T11:06:21;41.28;;;16.13;;
39502;SDS011;26970;49.900;10.774;2022-12-18T11:09:05;34.70;;;14.57;;
39502;SDS011;26970;49.900;10.774;2022-12-18T11:11:51;39.67;;;15.02;;
39502;SDS011;26970;49.900;10.774;2022-12-18T11:14:23;31.05;;;15.07;;
39502;SDS011;26970;49.900;10.774;2022-12-18T11:16:51;34.03;;;14.40;;
39502;SDS011;26970;49.900;10.774;2022-12-18T11:19:34;34.40;;;14.32;;
39502;SDS011;26970;49.900;10.774;2022-12-18T11:22:02;39.35;;;15.60;;
39502;SDS011;26970;49.900;10.774;2022-12-18T11:24:42;40.75;;;15.77;;
39502;SDS011;26970;49.900;10.774;2022-12-18T11:27:17;41.45;;;15.27;;
39502;SDS011;26970;49.900;10.774;2022-12-18T11:29:43;46.03;;;17.00;;
39502;SDS011;26970;49.900;10.774;2022-12-18T11:38:22;45.67;;;19.42;;
39502;SDS011;26970;49.900;10.774;2022-12-18T11:40:59;47.45;;;19.95;;
39502;SDS011;26970;49.900;10.774;2022-12-18T11:46:18;49.42;;;22.05;;
39502;SDS011;26970;49.900;10.774;2022-12-18T11:48:58;44.80;;;19.58;;
39502;SDS011;26970;49.900;10.774;2022-12-18T11:51:38;42.58;;;18.65;;
39502;SDS011;26970;49.900;10.774;2022-12-18T11:54:11;50.95;;;21.38;;
39502;SDS011;26970;49.900;10.774;2022-12-18T12:08:22;43.97;;;19.42;;
39502;SDS011;26970;49.900;10.774;2022-12-18T12:11:12;45.60;;;18.05;;
39502;SDS011;26970;49.900;10.774;2022-12-18T12:13:59;51.67;;;20.02;;
39502;SDS011;26970;49.900;10.774;2022-12-18T12:16:35;44.13;;;20.27;;
39502;SDS011;26970;49.900;10.774;2022-12-18T12:24:49;41.88;;;19.10;;
39502;SDS011;26970;49.900;10.774;2022-12-18T12:38:49;52.92;;;19.80;;
39502;SDS011;26970;49.900;10.774;2022-12-18T12:41:23;45.17;;;19.60;;
39502;SDS011;26970;49.900;10.774;2022-12-18T12:44:15;56.38;;;21.17;;
39502;SDS011;26970;49.900;10.774;2022-12-18T12:46:47;44.17;;;20.50;;
39502;SDS011;26970;49.900;10.774;2022-12-18T12:49:15;44.22;;;19.00;;
39502;SDS011;26970;49.900;10.774;2022-12-18T12:51:43;53.25;;;22.63;;
39502;SDS011;26970;49.900;10.774;2022-12-18T12:54:17;52.00;;;21.48;;
39502;SDS011;26970;49.900;10.774;2022-12-18T13:05:49;47.35;;;20.25;;
39502;SDS011;26970;49.900;10.774;2022-12-18T13:08:23;42.65;;;19.52;;
39502;SDS011;26970;49.900;10.774;2022-12-18T13:10:51;44.78;;;20.05;;
39502;SDS011;26970;49.900;10.774;2022-12-18T13:13:47;42.67;;;18.25;;
39502;SDS011;26970;49.900;10.774;2022-12-18T13:16:18;31.75;;;15.30;;
39502;SDS011;26970;49.900;10.774;2022-12-18T13:18:49;36.15;;;17.33;;
39502;SDS011;26970;49.900;10.774;2022-12-18T13:21:27;28.98;;;14.65;;
39502;SDS011;26970;49.900;10.774;2022-12-18T13:23:54;42.63;;;17.10;;
39502;SDS011;26970;49.900;10.774;2022-12-18T13:28:54;41.00;;;18.05;;
39502;SDS011;26970;49.900;10.774;2022-12-18T13:34:24;38.95;;;16.67;;
39502;SDS011;26970;49.900;10.774;2022-12-18T13:36:51;38.00;;;16.63;;
39502;SDS011;26970;49.900;10.774;2022-12-18T13:41:44;37.35;;;16.75;;
39502;SDS011;26970;49.900;10.774;2022-12-18T13:46:46;48.70;;;18.48;;
39502;SDS011;26970;49.900;10.774;2022-12-18T13:51:46;44.33;;;18.27;;
39502;SDS011;26970;49.900;10.774;2022-12-18T13:57:02;45.85;;;18.52;;
39502;SDS011;26970;49.900;10.774;2022-12-18T13:59:35;46.53;;;17.63;;
39502;SDS011;26970;49.900;10.774;2022-12-18T14:02:15;41.08;;;17.83;;
39502;SDS011;26970;49.900;10.774;2022-12-18T14:04:44;49.70;;;18.67;;
39502;SDS011;26970;49.900;10.774;2022-12-18T14:07:12;38.63;;;14.60;;
39502;SDS011;26970;49.900;10.774;2022-12-18T14:09:41;43.55;;;17.60;;
39502;SDS011;26970;49.900;10.774;2022-12-18T14:12:16;38.85;;;17.08;;
39502;SDS011;26970;49.900;10.774;2022-12-18T14:15:03;45.25;;;18.20;;
39502;SDS011;26970;49.900;10.774;2022-12-18T14:17:31;44.08;;;18.85;;
39502;SDS011;26970;49.900;10.774;2022-12-18T14:19:57;48.53;;;18.50;;
39502;SDS011;26970;49.900;10.774;2022-12-18T14:22:25;44.70;;;18.92;;
39502;SDS011;26970;49.900;10.774;2022-12-18T14:25:14;42.40;;;17.88;;
39502;SDS011;26970;49.900;10.774;2022-12-18T14:28:25;39.13;;;18.08;;
39502;SDS011;26970;49.900;10.774;2022-12-18T14:30:41;43.90;;;18.80;;
39502;SDS011;26970;49.900;10.774;2022-12-18T14:33:13;47.72;;;20.27;;
39502;SDS011;26970;49.900;10.774;2022-12-18T14:35:54;50.95;;;19.70;;
39502;SDS011;26970;49.900;10.774;2022-12-18T14:38:27;41.10;;;18.73;;
39502;SDS011;26970;49.900;10.774;2022-12-18T14:40:58;46.05;;;18.20;;
39502;SDS011;26970;49.900;10.774;2022-12-18T14:43:32;45.17;;;21.65;;
39502;SDS011;26970;49.900;10.774;2022-12-18T14:46:00;50.60;;;20.35;;
39502;SDS011;26970;49.900;10.774;2022-12-18T14:48:33;47.30;;;19.85;;
39502;SDS011;26970;49.900;10.774;2022-12-18T14:51:14;45.65;;;19.15;;
39502;SDS011;26970;49.900;10.774;2022-12-18T14:53:43;39.97;;;17.92;;
39502;SDS011;26970;49.900;10.774;2022-12-18T14:56:21;40.58;;;19.08;;
39502;SDS011;26970;49.900;10.774;2022-12-18T14:58:55;40.00;;;18.58;;
39502;SDS011;26970;49.900;10.774;2022-12-18T15:01:25;47.03;;;19.25;;
39502;SDS011;26970;49.900;10.774;2022-12-18T15:03:53;37.92;;;17.75;;
39502;SDS011;26970;49.900;10.774;2022-12-18T15:06:30;45.25;;;20.20;;
39502;SDS011;26970;49.900;10.774;2022-12-18T15:09:23;46.13;;;19.80;;
39502;SDS011;26970;49.900;10.774;2022-12-18T15:11:48;38.60;;;18.20;;
39502;SDS011;26970;49.900;10.774;2022-12-18T15:14:39;47.00;;;18.65;;
39502;SDS011;26970;49.900;10.774;2022-12-18T15:17:12;43.78;;;19.95;;
39502;SDS011;26970;49.900;10.774;2022-12-18T15:19:42;46.08;;;18.77;;
39502;SDS011;26970;49.900;10.774;2022-12-18T15:22:17;45.67;;;19.77;;
39502;SDS011;26970;49.900;10.774;2022-12-18T15:24:49;40.00;;;17.27;;
39502;SDS011;26970;49.900;10.774;2022-12-18T15:27:33;39.47;;;17.00;;
39502;SDS011;26970;49.900;10.774;2022-12-18T15:30:24;47.03;;;18.35;;
39502;SDS011;26970;49.900;10.774;2022-12-18T15:32:49;46.30;;;18.15;;
39502;SDS011;26970;49.900;10.774;2022-12-18T15:37:46;37.40;;;18.08;;
39502;SDS011;26970;49.900;10.774;2022-12-18T15:40:16;43.20;;;18.63;;
39502;SDS011;26970;49.900;10.774;2022-12-18T15:42:46;46.35;;;18.25;;
39502;SDS011;26970;49.900;10.774;2022-12-18T15:45:32;43.83;;;19.40;;
39502;SDS011;26970;49.900;10.774;2022-12-18T15:47:57;43.05;;;18.65;;
39502;SDS011;26970;49.900;10.774;2022-12-18T15:50:23;43.47;;;18.50;;
39502;SDS011;26970;49.900;10.774;2022-12-18T15:52:51;38.58;;;17.42;;
39502;SDS011;26970;49.900;10.774;2022-12-18T15:55:22;39.25;;;17.15;;
39502;SDS011;26970;49.900;10.774;2022-12-18T15:58:08;42.67;;;16.40;;
39502;SDS011;26970;49.900;10.774;2022-12-18T16:00:35;38.08;;;16.08;;
39502;SDS011;26970;49.900;10.774;2022-12-18T16:03:03;37.45;;;15.75;;
39502;SDS011;26970;49.900;10.774;2022-12-18T16:05:30;38.63;;;16.25;;
39502;SDS011;26970;49.900;10.774;2022-12-18T16:07:56;36.25;;;15.85;;
39502;SDS011;26970;49.900;10.774;2022-12-18T16:10:23;39.75;;;16.10;;
39502;SDS011;26970;49.900;10.774;2022-12-18T16:12:50;33.90;;;15.60;;
39502;SDS011;26970;49.900;10.774;2022-12-18T16:15:15;33.53;;;14.52;;
39502;SDS011;26970;49.900;10.774;2022-12-18T16:17:42;32.75;;;14.45;;
39502;SDS011;26970;49.900;10.774;2022-12-18T16:20:12;32.08;;;14.77;;
39502;SDS011;26970;49.900;10.774;2022-12-18T16:22:40;38.50;;;14.15;;